Airport View

Enter AWOS ICAO identifier for current METAR.

ex. KFNL

KPIA 100316Z 27006KT 10SM FEW060 FEW070 SCT095 22/21 A2978

10 Jul 2020 03:48

Phone: 309-697-3611

Other Area AWOS: KC75 - KAAA - KBMI - KGBG

TAF KPIA 092320Z 1000/1024 18013KT P6SM SCT040 FM100200 21009KT P6SM VCTS BKN040CB FM100400 24008KT P6SM BKN045 FM100900 28013KT P6SM SCT250 FM101700 31015G25KT P6SM SCT050